Enfidha, Tunisia
Current Conditions -  °F | °C
As of 1:30 PM on Thursday 30 Oct 2014 (Local Time) from DTNH Reporting Station
Clear Clear  
Wind Chill: 73°   Ceiling: Unl
Heat Index: 73°   Visibility: 6mi
Dew Point: 57°   Wind: 9mph
Humidity: 57%   Direction: 50°NE
Pressure: 30.12"   Gusts: NA
Location:  36.14°N, 10.38°E
Report Text: DTNH 301230Z AUTO 05008KT CAVOK 23/14 Q1020
Loading
Personal Weather Stations






























Interactive Weather Map
Tropical Storm Tracking
New forecast layout! Learn more

10-Day Weather Forecast

Advertisements
Track Severe Weather on mobile